Upperville, VA (20185)

2:11 PM EST on March 03, 2015 (GMT -0500)
VADOT Rt_50_@_Paris_Mnt | Change Station
CLOSE
Current Station
Personal Weather Station
Location: Paris, VA
Elevation: 1037 ft
Nearby Weather Stations

Elev 1037 ft 39.01 °N, 77.96 °W | Updated 56 minutes ago

Overcast
Overcast
29 °F
Feels Like 29 °F
N
0
Wind Variable Wind from SE
Gusts 0.0 mph

Today
High -- | Low -- °F
--% Chance of Precip.
Yesterday
High -- | Low -- °F
Precip. -- in
6:41 AM 6:06 PM
Waxing Gibbous, 97% visible
Pressure 30.13 in
Visibility 10.0 miles
Clouds Overcast 3500 ft
Windchill 29 °F
Dew Point 15 °F
Humidity 55%
Rainfall 0.00 in
Snow Depth Not available.
UV 2 out of 12
Pollen .90 out of 12
Air Quality Not available.
Flu Activity Not available.
METAR KOKV 031855Z AUTO 15012G16KT 10SM OVC035 01/M11 A3013 RMK AO2

More Conditions Fewer Conditions

Pressure 30.13 in
Visibility 10.0 miles
Clouds Overcast 3500 ft
Windchill 29 °F
Dew Point 15 °F
Humidity 55%
Rainfall 0.00 in
Snow Depth Not available.
UV 2 out of 12
Pollen .90 out of 12
Air Quality Not available.
Flu Activity Not available.
METAR KOKV 031855Z AUTO 15012G16KT 10SM OVC035 01/M11 A3013 RMK AO2

More Conditions Fewer Conditions

10-Day Weather Forecast

Almanac

Astronomy

Mar. 03, 2015 Rise Set
Actual Time
Civil Twilight
Nautical Twilight
Astronomical Twilight
Moon
Length of Visible Light
Length of Day
Tomorrow will be .
, % of the Moon is Illuminated

Today's Extremes

State Highs State Lows

Community

WunderPhotos

Upload Photos

1,802,201 photos uploaded!

WunderBlogs® & News

Nearby

Air Quality

  Air Quality AQ Index Pollutant
Not available.

Snow Depth

Station Depth Elevation

Earthquake Activity

City Distance Mag. Time & Date
Minimum magnitude displayed is 2.5.

Coastal Water Temperatures

Place Temperature

Nearby Weather Stations